sensor_id;sensor_type;location;lat;lon;timestamp;pressure;altitude;pressure_sealevel;temperature;humidity
8286;BME280;4181;43.416;24.598;2023-03-20T00:00:44;100431.41;;;8.70;100.00
8286;BME280;4181;43.416;24.598;2023-03-20T00:03:11;100419.84;;;8.45;100.00
8286;BME280;4181;43.416;24.598;2023-03-20T00:05:37;100439.78;;;8.21;100.00
8286;BME280;4181;43.416;24.598;2023-03-20T00:08:03;100425.31;;;8.27;100.00
8286;BME280;4181;43.416;24.598;2023-03-20T00:10:34;100428.22;;;8.44;100.00
8286;BME280;4181;43.416;24.598;2023-03-20T00:13:00;100415.06;;;8.29;100.00
8286;BME280;4181;43.416;24.598;2023-03-20T00:15:28;100424.38;;;8.33;100.00
8286;BME280;4181;43.416;24.598;2023-03-20T00:17:55;100396.28;;;8.21;100.00
8286;BME280;4181;43.416;24.598;2023-03-20T00:20:21;100410.16;;;8.49;100.00
8286;BME280;4181;43.416;24.598;2023-03-20T00:22:48;100381.03;;;8.38;100.00
8286;BME280;4181;43.416;24.598;2023-03-20T00:25:20;100384.44;;;8.34;100.00
8286;BME280;4181;43.416;24.598;2023-03-20T00:27:46;100394.94;;;8.30;100.00
8286;BME280;4181;43.416;24.598;2023-03-20T00:30:19;100416.31;;;8.27;100.00
8286;BME280;4181;43.416;24.598;2023-03-20T00:32:46;100411.63;;;8.34;100.00
8286;BME280;4181;43.416;24.598;2023-03-20T00:35:29;100400.56;;;8.47;100.00
8286;BME280;4181;43.416;24.598;2023-03-20T00:37:57;100410.34;;;8.18;100.00
8286;BME280;4181;43.416;24.598;2023-03-20T00:40:28;100406.44;;;8.14;100.00
8286;BME280;4181;43.416;24.598;2023-03-20T00:42:59;100396.75;;;8.18;100.00
8286;BME280;4181;43.416;24.598;2023-03-20T00:45:27;100377.56;;;7.84;100.00
8286;BME280;4181;43.416;24.598;2023-03-20T00:47:55;100373.41;;;7.81;100.00
8286;BME280;4181;43.416;24.598;2023-03-20T00:50:24;100382.97;;;8.02;100.00
8286;BME280;4181;43.416;24.598;2023-03-20T00:52:50;100374.31;;;7.75;100.00
8286;BME280;4181;43.416;24.598;2023-03-20T00:55:18;100395.97;;;7.82;100.00
8286;BME280;4181;43.416;24.598;2023-03-20T00:57:48;100389.13;;;7.79;100.00
8286;BME280;4181;43.416;24.598;2023-03-20T01:02:56;100377.41;;;7.60;100.00
8286;BME280;4181;43.416;24.598;2023-03-20T01:05:24;100376.72;;;7.65;100.00
8286;BME280;4181;43.416;24.598;2023-03-20T01:07:50;100355.00;;;7.47;100.00
8286;BME280;4181;43.416;24.598;2023-03-20T01:10:15;100379.97;;;7.55;100.00
8286;BME280;4181;43.416;24.598;2023-03-20T01:12:42;100355.63;;;7.49;100.00
8286;BME280;4181;43.416;24.598;2023-03-20T01:15:30;100380.13;;;7.42;100.00
8286;BME280;4181;43.416;24.598;2023-03-20T01:17:56;100370.97;;;7.19;100.00
8286;BME280;4181;43.416;24.598;2023-03-20T01:20:24;100366.09;;;7.45;100.00
8286;BME280;4181;43.416;24.598;2023-03-20T01:22:50;100365.34;;;7.56;100.00
8286;BME280;4181;43.416;24.598;2023-03-20T01:25:16;100379.00;;;7.68;100.00
8286;BME280;4181;43.416;24.598;2023-03-20T01:30:51;100388.66;;;7.64;100.00
8286;BME280;4181;43.416;24.598;2023-03-20T01:33:21;100372.66;;;7.74;100.00
8286;BME280;4181;43.416;24.598;2023-03-20T01:35:49;100378.34;;;7.72;100.00
8286;BME280;4181;43.416;24.598;2023-03-20T01:38:23;100371.97;;;7.79;100.00
8286;BME280;4181;43.416;24.598;2023-03-20T01:43:23;100389.41;;;7.89;100.00
8286;BME280;4181;43.416;24.598;2023-03-20T01:46:00;100363.47;;;7.57;100.00
8286;BME280;4181;43.416;24.598;2023-03-20T01:48:53;100368.28;;;7.73;100.00
8286;BME280;4181;43.416;24.598;2023-03-20T01:51:22;100366.81;;;7.34;100.00
8286;BME280;4181;43.416;24.598;2023-03-20T01:53:57;100359.50;;;7.17;100.00
8286;BME280;4181;43.416;24.598;2023-03-20T01:56:24;100350.19;;;7.31;100.00
8286;BME280;4181;43.416;24.598;2023-03-20T01:58:57;100369.66;;;7.64;100.00
8286;BME280;4181;43.416;24.598;2023-03-20T02:01:25;100370.81;;;7.86;100.00
8286;BME280;4181;43.416;24.598;2023-03-20T02:03:52;100376.13;;;7.99;100.00
8286;BME280;4181;43.416;24.598;2023-03-20T02:06:21;100366.16;;;7.93;100.00
8286;BME280;4181;43.416;24.598;2023-03-20T02:08:51;100359.81;;;7.99;100.00
8286;BME280;4181;43.416;24.598;2023-03-20T02:11:19;100376.84;;;8.06;100.00
8286;BME280;4181;43.416;24.598;2023-03-20T02:13:47;100387.56;;;8.01;100.00
8286;BME280;4181;43.416;24.598;2023-03-20T02:16:16;100387.81;;;7.82;100.00
8286;BME280;4181;43.416;24.598;2023-03-20T02:18:48;100377.34;;;7.49;100.00
8286;BME280;4181;43.416;24.598;2023-03-20T02:32:41;100373.44;;;7.02;100.00
8286;BME280;4181;43.416;24.598;2023-03-20T02:43:19;100338.44;;;6.70;100.00
8286;BME280;4181;43.416;24.598;2023-03-20T02:45:52;100353.66;;;6.95;100.00
8286;BME280;4181;43.416;24.598;2023-03-20T02:48:55;100348.28;;;7.13;100.00
8286;BME280;4181;43.416;24.598;2023-03-20T02:57:20;100330.56;;;6.86;100.00
8286;BME280;4181;43.416;24.598;2023-03-20T03:00:34;100335.13;;;6.92;100.00
8286;BME280;4181;43.416;24.598;2023-03-20T03:03:07;100338.47;;;6.88;100.00
8286;BME280;4181;43.416;24.598;2023-03-20T03:06:05;100344.53;;;6.40;100.00
8286;BME280;4181;43.416;24.598;2023-03-20T03:08:36;100313.00;;;6.71;100.00
8286;BME280;4181;43.416;24.598;2023-03-20T03:11:05;100339.94;;;6.66;100.00
8286;BME280;4181;43.416;24.598;2023-03-20T03:13:34;100336.50;;;6.52;100.00
8286;BME280;4181;43.416;24.598;2023-03-20T03:16:20;100322.84;;;6.65;100.00
8286;BME280;4181;43.416;24.598;2023-03-20T03:18:50;100308.94;;;6.80;100.00
8286;BME280;4181;43.416;24.598;2023-03-20T03:21:19;100315.16;;;6.87;100.00
8286;BME280;4181;43.416;24.598;2023-03-20T03:23:47;100317.00;;;7.11;100.00
8286;BME280;4181;43.416;24.598;2023-03-20T03:26:25;100326.13;;;7.34;100.00
8286;BME280;4181;43.416;24.598;2023-03-20T03:28:58;100345.97;;;7.35;100.00
8286;BME280;4181;43.416;24.598;2023-03-20T03:31:26;100352.28;;;7.29;100.00
8286;BME280;4181;43.416;24.598;2023-03-20T03:33:55;100353.47;;;7.15;100.00
8286;BME280;4181;43.416;24.598;2023-03-20T03:39:17;100344.84;;;7.00;100.00
8286;BME280;4181;43.416;24.598;2023-03-20T03:47:05;100312.19;;;6.88;100.00
8286;BME280;4181;43.416;24.598;2023-03-20T03:49:35;100347.41;;;6.95;100.00
8286;BME280;4181;43.416;24.598;2023-03-20T03:52:08;100357.47;;;6.88;100.00
8286;BME280;4181;43.416;24.598;2023-03-20T03:55:05;100361.63;;;6.66;100.00
8286;BME280;4181;43.416;24.598;2023-03-20T03:57:36;100360.47;;;6.80;100.00
8286;BME280;4181;43.416;24.598;2023-03-20T04:00:06;100347.91;;;6.85;100.00
8286;BME280;4181;43.416;24.598;2023-03-20T04:02:33;100358.41;;;6.51;100.00
8286;BME280;4181;43.416;24.598;2023-03-20T04:05:00;100367.28;;;6.64;100.00
8286;BME280;4181;43.416;24.598;2023-03-20T04:07:27;100363.97;;;6.62;100.00
8286;BME280;4181;43.416;24.598;2023-03-20T04:09:53;100355.81;;;6.87;100.00
8286;BME280;4181;43.416;24.598;2023-03-20T04:12:39;100350.13;;;6.95;100.00
8286;BME280;4181;43.416;24.598;2023-03-20T04:15:06;100366.66;;;7.11;100.00
8286;BME280;4181;43.416;24.598;2023-03-20T04:17:32;100379.56;;;7.16;100.00
8286;BME280;4181;43.416;24.598;2023-03-20T04:19:57;100368.94;;;6.90;100.00
8286;BME280;4181;43.416;24.598;2023-03-20T04:22:23;100387.25;;;6.38;100.00
8286;BME280;4181;43.416;24.598;2023-03-20T04:24:48;100376.47;;;6.32;100.00
8286;BME280;4181;43.416;24.598;2023-03-20T04:27:15;100323.53;;;5.98;100.00
8286;BME280;4181;43.416;24.598;2023-03-20T04:29:42;100319.97;;;6.35;100.00
8286;BME280;4181;43.416;24.598;2023-03-20T04:32:07;100314.47;;;6.17;100.00
8286;BME280;4181;43.416;24.598;2023-03-20T04:34:33;100285.59;;;6.29;100.00
8286;BME280;4181;43.416;24.598;2023-03-20T04:36:58;100286.16;;;6.63;100.00
8286;BME280;4181;43.416;24.598;2023-03-20T04:39:25;100324.06;;;6.69;100.00
8286;BME280;4181;43.416;24.598;2023-03-20T04:41:51;100301.72;;;6.74;100.00
8286;BME280;4181;43.416;24.598;2023-03-20T04:44:16;100346.53;;;7.01;100.00
8286;BME280;4181;43.416;24.598;2023-03-20T04:46:42;100362.06;;;7.12;100.00
8286;BME280;4181;43.416;24.598;2023-03-20T04:49:07;100324.66;;;6.96;100.00
8286;BME280;4181;43.416;24.598;2023-03-20T04:51:33;100367.53;;;7.48;100.00
8286;BME280;4181;43.416;24.598;2023-03-20T04:53:58;100349.25;;;7.73;100.00
8286;BME280;4181;43.416;24.598;2023-03-20T04:56:24;100361.47;;;8.00;100.00
8286;BME280;4181;43.416;24.598;2023-03-20T04:58:49;100363.97;;;8.31;100.00
8286;BME280;4181;43.416;24.598;2023-03-20T05:01:15;100365.81;;;8.49;100.00
8286;BME280;4181;43.416;24.598;2023-03-20T05:03:40;100376.06;;;8.76;100.00
8286;BME280;4181;43.416;24.598;2023-03-20T05:06:06;100360.53;;;8.65;100.00
8286;BME280;4181;43.416;24.598;2023-03-20T05:08:31;100361.97;;;8.27;100.00
8286;BME280;4181;43.416;24.598;2023-03-20T05:10:57;100346.56;;;8.21;100.00
8286;BME280;4181;43.416;24.598;2023-03-20T05:13:22;100348.75;;;8.30;100.00
8286;BME280;4181;43.416;24.598;2023-03-20T05:15:48;100361.03;;;8.62;100.00
8286;BME280;4181;43.416;24.598;2023-03-20T05:18:13;100357.47;;;8.73;100.00
8286;BME280;4181;43.416;24.598;2023-03-20T05:20:39;100373.97;;;9.02;100.00
8286;BME280;4181;43.416;24.598;2023-03-20T05:23:04;100346.97;;;9.00;100.00
8286;BME280;4181;43.416;24.598;2023-03-20T05:25:30;100376.81;;;9.18;100.00
8286;BME280;4181;43.416;24.598;2023-03-20T05:27:55;100352.53;;;9.17;100.00
8286;BME280;4181;43.416;24.598;2023-03-20T05:30:21;100366.03;;;9.58;100.00
8286;BME280;4181;43.416;24.598;2023-03-20T05:32:50;100344.28;;;9.86;100.00
8286;BME280;4181;43.416;24.598;2023-03-20T05:35:17;100355.22;;;10.42;100.00
8286;BME280;4181;43.416;24.598;2023-03-20T05:37:42;100340.84;;;10.47;100.00
8286;BME280;4181;43.416;24.598;2023-03-20T05:40:26;100347.09;;;10.75;100.00
8286;BME280;4181;43.416;24.598;2023-03-20T05:42:52;100332.63;;;10.91;100.00
8286;BME280;4181;43.416;24.598;2023-03-20T05:45:18;100353.22;;;10.99;100.00
8286;BME280;4181;43.416;24.598;2023-03-20T05:47:43;100351.91;;;11.01;100.00
8286;BME280;4181;43.416;24.598;2023-03-20T05:50:10;100349.81;;;11.08;100.00
8286;BME280;4181;43.416;24.598;2023-03-20T05:52:36;100344.44;;;11.13;100.00
8286;BME280;4181;43.416;24.598;2023-03-20T05:55:01;100344.53;;;11.57;100.00
8286;BME280;4181;43.416;24.598;2023-03-20T05:57:27;100334.75;;;11.61;100.00
8286;BME280;4181;43.416;24.598;2023-03-20T05:59:52;100326.38;;;11.89;100.00
8286;BME280;4181;43.416;24.598;2023-03-20T06:02:18;100334.25;;;12.07;100.00
8286;BME280;4181;43.416;24.598;2023-03-20T06:04:43;100332.34;;;12.07;100.00
8286;BME280;4181;43.416;24.598;2023-03-20T06:07:09;100341.81;;;12.21;100.00
8286;BME280;4181;43.416;24.598;2023-03-20T06:09:34;100332.09;;;12.35;100.00
8286;BME280;4181;43.416;24.598;2023-03-20T06:12:00;100331.59;;;12.65;100.00
8286;BME280;4181;43.416;24.598;2023-03-20T06:14:26;100334.59;;;13.00;100.00
8286;BME280;4181;43.416;24.598;2023-03-20T06:16:51;100333.97;;;13.20;100.00
8286;BME280;4181;43.416;24.598;2023-03-20T06:19:18;100333.28;;;13.39;100.00
8286;BME280;4181;43.416;24.598;2023-03-20T06:21:44;100317.53;;;13.66;100.00
8286;BME280;4181;43.416;24.598;2023-03-20T06:24:10;100325.91;;;13.96;100.00
8286;BME280;4181;43.416;24.598;2023-03-20T06:26:35;100313.28;;;14.00;100.00
8286;BME280;4181;43.416;24.598;2023-03-20T06:29:01;100312.25;;;14.22;100.00
8286;BME280;4181;43.416;24.598;2023-03-20T06:31:27;100327.69;;;14.43;100.00
8286;BME280;4181;43.416;24.598;2023-03-20T06:33:52;100312.63;;;14.45;100.00
8286;BME280;4181;43.416;24.598;2023-03-20T06:36:18;100297.25;;;14.59;100.00
8286;BME280;4181;43.416;24.598;2023-03-20T06:38:43;100314.56;;;14.75;100.00
8286;BME280;4181;43.416;24.598;2023-03-20T06:41:09;100302.47;;;14.71;100.00
8286;BME280;4181;43.416;24.598;2023-03-20T06:43:34;100313.72;;;14.54;100.00
8286;BME280;4181;43.416;24.598;2023-03-20T06:46:00;100327.59;;;14.18;100.00
8286;BME280;4181;43.416;24.598;2023-03-20T06:48:25;100327.81;;;14.01;100.00
8286;BME280;4181;43.416;24.598;2023-03-20T06:50:51;100328.09;;;13.99;100.00
8286;BME280;4181;43.416;24.598;2023-03-20T06:53:17;100332.00;;;14.14;100.00
8286;BME280;4181;43.416;24.598;2023-03-20T06:55:47;100309.75;;;14.05;100.00
8286;BME280;4181;43.416;24.598;2023-03-20T06:58:13;100299.66;;;14.31;100.00
8286;BME280;4181;43.416;24.598;2023-03-20T07:00:38;100302.97;;;14.28;100.00
8286;BME280;4181;43.416;24.598;2023-03-20T07:03:04;100318.94;;;14.66;100.00
8286;BME280;4181;43.416;24.598;2023-03-20T07:05:30;100307.13;;;14.90;100.00
8286;BME280;4181;43.416;24.598;2023-03-20T07:07:55;100282.38;;;15.05;100.00
8286;BME280;4181;43.416;24.598;2023-03-20T07:10:21;100291.47;;;15.01;100.00
8286;BME280;4181;43.416;24.598;2023-03-20T07:12:47;100300.25;;;15.08;100.00
8286;BME280;4181;43.416;24.598;2023-03-20T07:15:13;100302.44;;;15.16;100.00
8286;BME280;4181;43.416;24.598;2023-03-20T07:17:39;100304.34;;;15.15;100.00
8286;BME280;4181;43.416;24.598;2023-03-20T07:20:04;100302.41;;;15.36;100.00
8286;BME280;4181;43.416;24.598;2023-03-20T07:22:30;100301.75;;;15.79;100.00
8286;BME280;4181;43.416;24.598;2023-03-20T07:24:56;100309.97;;;15.89;100.00
8286;BME280;4181;43.416;24.598;2023-03-20T07:27:22;100283.50;;;15.98;100.00
8286;BME280;4181;43.416;24.598;2023-03-20T07:29:48;100288.50;;;16.40;100.00
8286;BME280;4181;43.416;24.598;2023-03-20T07:32:13;100280.63;;;16.67;100.00
8286;BME280;4181;43.416;24.598;2023-03-20T07:34:39;100284.59;;;16.85;100.00
8286;BME280;4181;43.416;24.598;2023-03-20T07:37:05;100276.78;;;16.97;100.00
8286;BME280;4181;43.416;24.598;2023-03-20T07:39:31;100267.63;;;17.01;100.00
8286;BME280;4181;43.416;24.598;2023-03-20T07:41:56;100258.94;;;17.13;100.00
8286;BME280;4181;43.416;24.598;2023-03-20T07:44:22;100269.34;;;17.49;100.00
8286;BME280;4181;43.416;24.598;2023-03-20T07:46:47;100275.03;;;17.82;100.00
8286;BME280;4181;43.416;24.598;2023-03-20T07:49:13;100264.97;;;17.91;100.00
8286;BME280;4181;43.416;24.598;2023-03-20T07:51:39;100267.31;;;18.02;100.00
8286;BME280;4181;43.416;24.598;2023-03-20T07:54:05;100264.50;;;18.26;100.00
8286;BME280;4181;43.416;24.598;2023-03-20T07:56:31;100239.47;;;18.36;100.00
8286;BME280;4181;43.416;24.598;2023-03-20T07:58:56;100247.31;;;18.29;100.00
8286;BME280;4181;43.416;24.598;2023-03-20T08:01:22;100253.78;;;18.38;100.00
8286;BME280;4181;43.416;24.598;2023-03-20T08:03:47;100254.41;;;18.53;100.00
8286;BME280;4181;43.416;24.598;2023-03-20T08:06:13;100248.97;;;18.48;100.00
8286;BME280;4181;43.416;24.598;2023-03-20T08:08:38;100254.56;;;18.62;100.00
8286;BME280;4181;43.416;24.598;2023-03-20T08:11:04;100244.06;;;18.77;100.00
8286;BME280;4181;43.416;24.598;2023-03-20T08:13:30;100245.56;;;19.02;100.00
8286;BME280;4181;43.416;24.598;2023-03-20T08:15:55;100249.97;;;19.03;100.00
8286;BME280;4181;43.416;24.598;2023-03-20T08:18:21;100244.03;;;19.10;100.00
8286;BME280;4181;43.416;24.598;2023-03-20T08:20:47;100238.81;;;19.22;100.00
8286;BME280;4181;43.416;24.598;2023-03-20T08:23:15;100237.81;;;19.18;100.00
8286;BME280;4181;43.416;24.598;2023-03-20T08:25:48;100224.56;;;19.15;100.00
8286;BME280;4181;43.416;24.598;2023-03-20T08:28:14;100238.47;;;19.55;100.00
8286;BME280;4181;43.416;24.598;2023-03-20T08:30:40;100239.41;;;19.64;100.00
8286;BME280;4181;43.416;24.598;2023-03-20T08:33:05;100237.13;;;19.80;100.00
8286;BME280;4181;43.416;24.598;2023-03-20T08:35:31;100241.00;;;20.06;100.00
8286;BME280;4181;43.416;24.598;2023-03-20T08:37:56;100235.53;;;20.50;100.00
8286;BME280;4181;43.416;24.598;2023-03-20T08:40:22;100234.91;;;20.75;100.00
8286;BME280;4181;43.416;24.598;2023-03-20T08:42:48;100232.06;;;20.89;100.00
8286;BME280;4181;43.416;24.598;2023-03-20T08:45:13;100214.22;;;20.81;100.00
8286;BME280;4181;43.416;24.598;2023-03-20T08:47:39;100231.28;;;21.19;100.00
8286;BME280;4181;43.416;24.598;2023-03-20T08:50:05;100230.72;;;21.39;100.00
8286;BME280;4181;43.416;24.598;2023-03-20T08:52:32;100215.91;;;21.13;100.00
8286;BME280;4181;43.416;24.598;2023-03-20T08:54:57;100224.16;;;21.35;100.00
8286;BME280;4181;43.416;24.598;2023-03-20T08:57:23;100204.25;;;21.42;100.00
8286;BME280;4181;43.416;24.598;2023-03-20T08:59:48;100204.78;;;21.44;100.00
8286;BME280;4181;43.416;24.598;2023-03-20T09:02:14;100212.81;;;21.54;100.00
8286;BME280;4181;43.416;24.598;2023-03-20T09:04:39;100206.47;;;21.62;100.00
8286;BME280;4181;43.416;24.598;2023-03-20T09:07:06;100206.34;;;21.75;100.00
8286;BME280;4181;43.416;24.598;2023-03-20T09:09:31;100196.75;;;21.81;100.00
8286;BME280;4181;43.416;24.598;2023-03-20T09:11:58;100187.72;;;21.76;100.00
8286;BME280;4181;43.416;24.598;2023-03-20T09:14:26;100198.22;;;21.87;100.00
8286;BME280;4181;43.416;24.598;2023-03-20T09:16:51;100202.81;;;22.00;100.00
8286;BME280;4181;43.416;24.598;2023-03-20T09:19:18;100184.53;;;22.16;100.00
8286;BME280;4181;43.416;24.598;2023-03-20T09:21:44;100192.53;;;22.35;100.00
8286;BME280;4181;43.416;24.598;2023-03-20T09:24:12;100160.31;;;22.25;100.00
8286;BME280;4181;43.416;24.598;2023-03-20T09:26:38;100191.22;;;22.49;100.00
8286;BME280;4181;43.416;24.598;2023-03-20T09:29:04;100189.44;;;22.62;100.00
8286;BME280;4181;43.416;24.598;2023-03-20T09:31:30;100175.00;;;22.51;100.00
8286;BME280;4181;43.416;24.598;2023-03-20T09:33:55;100162.59;;;22.49;100.00
8286;BME280;4181;43.416;24.598;2023-03-20T09:36:21;100177.19;;;22.63;100.00
8286;BME280;4181;43.416;24.598;2023-03-20T09:38:46;100186.97;;;22.69;100.00
8286;BME280;4181;43.416;24.598;2023-03-20T09:41:30;100150.97;;;22.47;100.00
8286;BME280;4181;43.416;24.598;2023-03-20T09:44:15;100176.53;;;22.58;100.00
8286;BME280;4181;43.416;24.598;2023-03-20T09:47:09;100174.41;;;22.63;100.00
8286;BME280;4181;43.416;24.598;2023-03-20T09:53:10;100168.81;;;22.46;100.00
8286;BME280;4181;43.416;24.598;2023-03-20T09:55:42;100174.72;;;22.44;100.00
8286;BME280;4181;43.416;24.598;2023-03-20T09:58:34;100174.72;;;22.27;100.00
8286;BME280;4181;43.416;24.598;2023-03-20T10:01:04;100173.25;;;22.21;100.00
8286;BME280;4181;43.416;24.598;2023-03-20T10:03:52;100154.94;;;22.29;100.00
8286;BME280;4181;43.416;24.598;2023-03-20T10:06:20;100157.88;;;22.41;100.00
8286;BME280;4181;43.416;24.598;2023-03-20T10:08:45;100157.22;;;22.27;100.00
8286;BME280;4181;43.416;24.598;2023-03-20T10:11:33;100153.25;;;22.45;100.00
8286;BME280;4181;43.416;24.598;2023-03-20T10:17:03;100142.63;;;22.64;100.00
8286;BME280;4181;43.416;24.598;2023-03-20T10:19:43;100145.38;;;22.81;100.00
8286;BME280;4181;43.416;24.598;2023-03-20T10:27:31;100134.47;;;22.25;100.00
8286;BME280;4181;43.416;24.598;2023-03-20T10:30:22;100148.03;;;22.52;100.00
8286;BME280;4181;43.416;24.598;2023-03-20T10:33:04;100135.28;;;22.51;100.00
8286;BME280;4181;43.416;24.598;2023-03-20T10:35:52;100139.16;;;22.84;100.00
8286;BME280;4181;43.416;24.598;2023-03-20T10:38:51;100134.25;;;22.81;100.00
8286;BME280;4181;43.416;24.598;2023-03-20T10:41:20;100135.63;;;22.41;100.00
8286;BME280;4181;43.416;24.598;2023-03-20T10:43:48;100119.75;;;22.58;100.00
8286;BME280;4181;43.416;24.598;2023-03-20T10:46:27;100119.06;;;22.70;100.00
8286;BME280;4181;43.416;24.598;2023-03-20T10:49:08;100123.25;;;22.93;100.00
8286;BME280;4181;43.416;24.598;2023-03-20T10:51:43;100097.59;;;22.79;100.00
8286;BME280;4181;43.416;24.598;2023-03-20T10:56:52;100090.09;;;22.71;100.00
8286;BME280;4181;43.416;24.598;2023-03-20T10:59:30;100106.22;;;22.95;100.00
8286;BME280;4181;43.416;24.598;2023-03-20T11:01:57;100092.28;;;23.03;100.00
8286;BME280;4181;43.416;24.598;2023-03-20T11:04:23;100071.91;;;23.11;100.00
8286;BME280;4181;43.416;24.598;2023-03-20T11:09:37;100078.69;;;23.60;100.00
8286;BME280;4181;43.416;24.598;2023-03-20T11:12:03;100061.75;;;23.44;100.00
8286;BME280;4181;43.416;24.598;2023-03-20T11:14:38;100066.72;;;23.59;100.00
8286;BME280;4181;43.416;24.598;2023-03-20T11:17:05;100070.78;;;23.41;100.00
8286;BME280;4181;43.416;24.598;2023-03-20T11:19:36;100065.06;;;23.38;100.00
8286;BME280;4181;43.416;24.598;2023-03-20T11:22:21;100052.38;;;23.69;100.00
8286;BME280;4181;43.416;24.598;2023-03-20T11:24:57;100044.97;;;23.73;100.00
8286;BME280;4181;43.416;24.598;2023-03-20T11:27:28;100040.34;;;23.77;100.00
8286;BME280;4181;43.416;24.598;2023-03-20T11:29:55;100032.97;;;23.94;100.00
8286;BME280;4181;43.416;24.598;2023-03-20T11:34:50;100010.59;;;23.69;100.00
8286;BME280;4181;43.416;24.598;2023-03-20T11:37:28;100020.22;;;23.93;100.00
8286;BME280;4181;43.416;24.598;2023-03-20T11:39:59;100021.69;;;23.90;100.00
8286;BME280;4181;43.416;24.598;2023-03-20T11:42:28;100021.69;;;23.90;100.00
8286;BME280;4181;43.416;24.598;2023-03-20T11:45:03;100023.16;;;23.75;100.00
8286;BME280;4181;43.416;24.598;2023-03-20T11:47:34;100018.19;;;23.81;100.00
8286;BME280;4181;43.416;24.598;2023-03-20T11:50:03;100022.75;;;23.86;100.00
8286;BME280;4181;43.416;24.598;2023-03-20T11:52:35;99994.16;;;23.76;100.00
8286;BME280;4181;43.416;24.598;2023-03-20T11:55:06;100004.22;;;23.69;100.00
8286;BME280;4181;43.416;24.598;2023-03-20T11:57:44;100016.34;;;23.85;100.00
8286;BME280;4181;43.416;24.598;2023-03-20T12:02:35;100014.66;;;23.93;100.00
8286;BME280;4181;43.416;24.598;2023-03-20T12:08:22;100008.47;;;24.08;100.00
8286;BME280;4181;43.416;24.598;2023-03-20T12:10:52;100010.06;;;24.09;100.00
8286;BME280;4181;43.416;24.598;2023-03-20T12:13:32;100003.38;;;24.10;100.00
8286;BME280;4181;43.416;24.598;2023-03-20T12:16:03;100009.28;;;24.08;100.00
8286;BME280;4181;43.416;24.598;2023-03-20T12:18:44;100007.16;;;24.05;100.00
8286;BME280;4181;43.416;24.598;2023-03-20T12:21:18;100004.84;;;24.07;100.00
8286;BME280;4181;43.416;24.598;2023-03-20T12:23:51;100004.41;;;24.17;100.00
8286;BME280;4181;43.416;24.598;2023-03-20T12:26:23;99981.75;;;24.07;100.00
8286;BME280;4181;43.416;24.598;2023-03-20T12:29:02;99974.19;;;23.74;100.00
8286;BME280;4181;43.416;24.598;2023-03-20T12:32:08;99999.50;;;24.02;100.00
8286;BME280;4181;43.416;24.598;2023-03-20T12:34:48;100003.44;;;23.80;100.00
8286;BME280;4181;43.416;24.598;2023-03-20T12:37:15;100003.50;;;23.93;100.00
8286;BME280;4181;43.416;24.598;2023-03-20T12:39:56;99991.88;;;23.91;100.00
8286;BME280;4181;43.416;24.598;2023-03-20T12:45:12;99980.38;;;23.92;100.00
8286;BME280;4181;43.416;24.598;2023-03-20T12:47:51;99978.06;;;23.94;100.00
8286;BME280;4181;43.416;24.598;2023-03-20T12:50:39;99970.06;;;23.93;100.00
8286;BME280;4181;43.416;24.598;2023-03-20T12:53:49;99976.41;;;23.81;100.00
8286;BME280;4181;43.416;24.598;2023-03-20T12:59:26;99953.25;;;23.68;100.00
8286;BME280;4181;43.416;24.598;2023-03-20T13:04:51;99960.47;;;23.69;100.00
8286;BME280;4181;43.416;24.598;2023-03-20T13:07:21;99962.28;;;23.65;100.00
8286;BME280;4181;43.416;24.598;2023-03-20T13:36:53;99940.50;;;23.47;100.00
8286;BME280;4181;43.416;24.598;2023-03-20T13:41:57;99918.47;;;23.54;100.00
8286;BME280;4181;43.416;24.598;2023-03-20T13:44:26;99924.19;;;23.57;100.00
8286;BME280;4181;43.416;24.598;2023-03-20T13:47:01;99928.84;;;23.65;100.00
8286;BME280;4181;43.416;24.598;2023-03-20T13:52:05;99923.38;;;23.57;100.00
8286;BME280;4181;43.416;24.598;2023-03-20T13:54:50;99919.09;;;23.59;100.00
8286;BME280;4181;43.416;24.598;2023-03-20T13:57:47;99920.00;;;23.51;100.00
8286;BME280;4181;43.416;24.598;2023-03-20T14:00:34;99916.34;;;23.39;100.00
8286;BME280;4181;43.416;24.598;2023-03-20T14:05:36;99914.06;;;23.12;100.00
8286;BME280;4181;43.416;24.598;2023-03-20T14:08:23;99906.41;;;22.88;100.00
8286;BME280;4181;43.416;24.598;2023-03-20T14:13:55;99903.56;;;23.17;100.00
8286;BME280;4181;43.416;24.598;2023-03-20T14:16:22;99880.97;;;22.98;100.00
8286;BME280;4181;43.416;24.598;2023-03-20T14:18:50;99901.94;;;23.16;100.00
8286;BME280;4181;43.416;24.598;2023-03-20T14:21:28;99898.19;;;23.12;100.00
8286;BME280;4181;43.416;24.598;2023-03-20T14:24:05;99902.47;;;22.89;100.00
8286;BME280;4181;43.416;24.598;2023-03-20T14:26:37;99901.31;;;22.90;100.00
8286;BME280;4181;43.416;24.598;2023-03-20T14:31:38;99894.84;;;22.78;100.00
8286;BME280;4181;43.416;24.598;2023-03-20T14:39:48;99881.41;;;22.59;100.00
8286;BME280;4181;43.416;24.598;2023-03-20T14:47:41;99885.78;;;22.31;100.00
8286;BME280;4181;43.416;24.598;2023-03-20T14:50:21;99882.06;;;22.18;100.00
8286;BME280;4181;43.416;24.598;2023-03-20T14:53:08;99886.16;;;22.21;100.00
8286;BME280;4181;43.416;24.598;2023-03-20T15:01:06;99886.69;;;22.14;100.00
8286;BME280;4181;43.416;24.598;2023-03-20T15:03:33;99886.00;;;22.17;100.00
8286;BME280;4181;43.416;24.598;2023-03-20T15:06:04;99876.09;;;22.08;100.00
8286;BME280;4181;43.416;24.598;2023-03-20T15:08:34;99869.75;;;21.90;100.00
8286;BME280;4181;43.416;24.598;2023-03-20T15:11:07;99886.59;;;21.94;100.00
8286;BME280;4181;43.416;24.598;2023-03-20T15:13:34;99884.31;;;21.87;100.00
8286;BME280;4181;43.416;24.598;2023-03-20T15:16:07;99883.31;;;21.92;100.00
8286;BME280;4181;43.416;24.598;2023-03-20T15:18:42;99885.75;;;21.93;100.00
8286;BME280;4181;43.416;24.598;2023-03-20T15:21:19;99866.69;;;21.83;100.00
8286;BME280;4181;43.416;24.598;2023-03-20T15:23:46;99872.88;;;21.89;100.00